Time;durP1;ratioP1;P1;durP2;ratioP2;P2;SDS_P1;SDS_P2;PMS_P1;PMS_P2;Temp;Humidity;BMP_temperature;BMP_pressure;BME280_temperature;BME280_humidity;BME280_pressure;Samples;Min_cycle;Max_cycle;Signal;HPM_P1;HPM_P2
2022/01/07 00:00:13;;;;;;;20.60;9.40;;;3.80;75.80;;;;;;4974172;28;20230;-70
2022/01/07 00:02:41;;;;;;;16.95;8.98;;;3.90;75.80;;;;;;4976593;28;21039;-70
2022/01/07 00:05:12;;;;;;;19.25;8.43;;;3.90;75.70;;;;;;4975575;28;20571;-70
2022/01/07 00:07:40;;;;;;;24.13;9.20;;;3.90;75.70;;;;;;4976344;28;20249;-70
2022/01/07 00:10:10;;;;;;;17.77;8.57;;;3.90;75.70;;;;;;4990670;28;20231;-70
2022/01/07 00:12:38;;;;;;;20.65;9.35;;;3.90;75.70;;;;;;4978955;28;20218;-70
2022/01/07 00:15:07;;;;;;;18.15;9.02;;;3.90;75.80;;;;;;4980684;28;20265;-70
2022/01/07 00:17:36;;;;;;;17.45;8.43;;;3.90;75.80;;;;;;4977093;28;20268;-69
2022/01/07 00:20:08;;;;;;;16.88;8.27;;;3.90;75.90;;;;;;4971640;28;20309;-69
2022/01/07 00:22:39;;;;;;;14.43;7.90;;;4.00;75.90;;;;;;4977627;28;20228;-70
2022/01/07 00:25:09;;;;;;;18.67;9.23;;;4.00;75.90;;;;;;4977687;28;20250;-69
2022/01/07 00:27:38;;;;;;;17.75;9.35;;;4.00;75.90;;;;;;4976468;28;20664;-69
2022/01/07 00:30:08;;;;;;;17.63;9.10;;;4.00;75.90;;;;;;4971736;28;20231;-69
2022/01/07 00:32:37;;;;;;;16.85;8.48;;;4.00;75.90;;;;;;4992095;28;21036;-70
2022/01/07 00:35:06;;;;;;;21.63;8.55;;;4.00;75.90;;;;;;4981092;28;20214;-69
2022/01/07 00:37:35;;;;;;;15.65;8.15;;;4.00;75.90;;;;;;4976355;28;20207;-68
2022/01/07 00:40:07;;;;;;;16.23;8.18;;;4.00;75.90;;;;;;4978326;28;20238;-70
2022/01/07 00:42:35;;;;;;;15.88;8.75;;;4.00;75.80;;;;;;4974482;28;20218;-69
2022/01/07 00:45:05;;;;;;;20.20;9.30;;;3.90;75.80;;;;;;4975607;28;20254;-69
2022/01/07 00:47:33;;;;;;;16.58;10.18;;;3.90;75.90;;;;;;4975856;28;20226;-68
2022/01/07 00:50:01;;;;;;;24.58;10.02;;;3.80;75.90;;;;;;4973951;28;20893;-67
2022/01/07 00:52:29;;;;;;;19.10;10.75;;;3.80;76.10;;;;;;4975611;28;20823;-69
2022/01/07 00:54:57;;;;;;;21.65;9.13;;;3.90;76.20;;;;;;4974206;28;20199;-69
2022/01/07 00:57:26;;;;;;;21.77;9.77;;;3.90;76.20;;;;;;4979098;28;20206;-69
2022/01/07 00:59:54;;;;;;;17.17;8.80;;;3.90;76.20;;;;;;4974315;28;20311;-69
2022/01/07 01:02:22;;;;;;;22.15;10.43;;;3.90;76.20;;;;;;4977883;28;20243;-69
2022/01/07 01:04:50;;;;;;;17.48;9.98;;;3.90;76.20;;;;;;4978737;28;20301;-69
2022/01/07 01:07:18;;;;;;;17.88;9.90;;;3.90;76.20;;;;;;4981047;28;21152;-68
2022/01/07 01:09:46;;;;;;;19.35;9.43;;;3.90;76.40;;;;;;4979383;28;20292;-68
2022/01/07 01:12:14;;;;;;;20.55;9.43;;;4.00;76.50;;;;;;4981949;28;20664;-69
2022/01/07 01:14:43;;;;;;;23.52;10.07;;;4.00;76.50;;;;;;4981206;28;20261;-68
2022/01/07 01:17:11;;;;;;;19.25;10.05;;;4.00;76.40;;;;;;4982220;28;20738;-69
2022/01/07 01:19:39;;;;;;;20.17;10.27;;;4.00;76.40;;;;;;4978754;28;20241;-69
2022/01/07 01:22:09;;;;;;;21.23;10.30;;;3.90;76.60;;;;;;4982195;28;20255;-68
2022/01/07 01:24:37;;;;;;;22.88;9.77;;;4.00;76.60;;;;;;4981733;28;20692;-69
2022/01/07 01:27:05;;;;;;;20.55;9.82;;;4.00;76.60;;;;;;4996708;28;20218;-68
2022/01/07 01:29:34;;;;;;;21.92;9.70;;;4.00;76.60;;;;;;4978586;28;20226;-70
2022/01/07 01:32:05;;;;;;;14.60;9.77;;;4.00;76.60;;;;;;4992964;28;20238;-70
2022/01/07 01:34:33;;;;;;;21.52;10.50;;;4.00;76.50;;;;;;4986260;28;20217;-70
2022/01/07 01:37:01;;;;;;;20.08;10.05;;;4.00;76.50;;;;;;4984982;28;20198;-68
2022/01/07 01:39:29;;;;;;;22.73;10.43;;;4.00;76.60;;;;;;4990103;28;20828;-69
2022/01/07 01:41:58;;;;;;;20.92;10.25;;;4.00;76.50;;;;;;4977916;28;20211;-69
2022/01/07 01:44:26;;;;;;;24.48;9.30;;;4.00;76.40;;;;;;4982934;28;20233;-68
2022/01/07 01:46:54;;;;;;;18.45;9.65;;;4.00;76.50;;;;;;4980648;28;20589;-68
2022/01/07 01:49:24;;;;;;;22.95;11.00;;;3.90;76.60;;;;;;4977663;28;20218;-68
2022/01/07 01:51:52;;;;;;;20.13;10.65;;;3.90;76.20;;;;;;4975239;28;20266;-72
2022/01/07 01:54:20;;;;;;;33.55;15.32;;;3.80;76.40;;;;;;4979364;28;20194;-74
2022/01/07 01:56:48;;;;;;;27.15;13.25;;;3.80;76.50;;;;;;4975758;28;20633;-70
2022/01/07 01:59:24;;;;;;;23.67;10.70;;;3.80;76.50;;;;;;4975301;28;20353;-69
2022/01/07 02:01:52;;;;;;;17.75;10.20;;;3.80;76.50;;;;;;4975819;28;20257;-69
2022/01/07 02:04:20;;;;;;;19.90;9.27;;;3.70;76.50;;;;;;4977650;28;20223;-70
2022/01/07 02:06:50;;;;;;;20.85;9.65;;;3.70;76.50;;;;;;4977974;28;20203;-69
2022/01/07 02:09:21;;;;;;;26.15;10.55;;;3.70;76.60;;;;;;4979346;28;20199;-69
2022/01/07 02:11:49;;;;;;;16.92;10.18;;;3.70;76.60;;;;;;4991885;28;20210;-69
2022/01/07 02:14:17;;;;;;;22.23;10.82;;;3.70;76.60;;;;;;4979589;28;20633;-70
2022/01/07 02:16:45;;;;;;;24.70;10.32;;;3.70;76.80;;;;;;4982448;28;20719;-68
2022/01/07 02:19:13;;;;;;;18.10;10.50;;;3.80;77.00;;;;;;4979795;28;20202;-69
2022/01/07 02:21:42;;;;;;;22.70;10.98;;;3.80;77.10;;;;;;4979057;28;20202;-69
2022/01/07 02:24:11;;;;;;;19.77;10.27;;;3.80;77.10;;;;;;4980371;28;20211;-69
2022/01/07 02:26:38;;;;;;;21.90;11.52;;;3.90;77.20;;;;;;4979960;28;20210;-69
2022/01/07 02:29:09;;;;;;;20.83;10.88;;;3.90;77.20;;;;;;4977032;28;20191;-69
2022/01/07 02:31:37;;;;;;;21.10;10.43;;;3.90;77.10;;;;;;4994761;28;20322;-69
2022/01/07 02:34:05;;;;;;;17.55;9.75;;;3.90;77.00;;;;;;4981024;28;20199;-69
2022/01/07 02:36:33;;;;;;;21.23;11.85;;;3.90;77.20;;;;;;4978343;28;20730;-68
2022/01/07 02:39:03;;;;;;;19.95;11.00;;;3.90;77.40;;;;;;4975943;28;20213;-68
2022/01/07 02:41:31;;;;;;;23.35;10.38;;;4.00;77.40;;;;;;4979621;28;20338;-68
2022/01/07 02:43:59;;;;;;;23.20;10.13;;;4.00;77.40;;;;;;4980848;28;20270;-69
2022/01/07 02:46:27;;;;;;;22.90;10.93;;;4.00;77.10;;;;;;4979691;28;20234;-68
2022/01/07 02:48:57;;;;;;;20.42;9.82;;;4.00;77.20;;;;;;4978173;28;20230;-68
2022/01/07 02:51:25;;;;;;;26.67;11.45;;;3.90;77.40;;;;;;4978324;28;20222;-69
2022/01/07 02:53:52;;;;;;;16.70;9.45;;;3.90;77.50;;;;;;4978242;28;20213;-69
2022/01/07 02:56:23;;;;;;;25.55;10.10;;;3.90;77.60;;;;;;4979566;28;20214;-69
2022/01/07 02:58:51;;;;;;;19.52;9.57;;;4.00;77.60;;;;;;4977235;28;20209;-69
2022/01/07 03:01:19;;;;;;;17.70;10.70;;;3.90;77.50;;;;;;4992928;28;20227;-70
2022/01/07 03:03:47;;;;;;;22.65;11.45;;;3.90;77.60;;;;;;4977890;28;20277;-68
2022/01/07 03:06:15;;;;;;;18.67;9.40;;;3.90;77.70;;;;;;4975511;28;20206;-68
2022/01/07 03:08:47;;;;;;;19.60;10.50;;;3.90;77.70;;;;;;4978412;28;20612;-71
2022/01/07 03:11:14;;;;;;;23.13;11.40;;;3.90;77.80;;;;;;4977320;28;20222;-69
2022/01/07 03:13:44;;;;;;;15.93;10.35;;;3.90;77.80;;;;;;4978470;28;20772;-69
2022/01/07 03:16:13;;;;;;;20.75;12.55;;;3.90;77.70;;;;;;4977862;28;20738;-69
2022/01/07 03:18:41;;;;;;;17.02;9.95;;;3.90;77.80;;;;;;4978880;28;20198;-69
2022/01/07 03:21:08;;;;;;;19.02;10.45;;;3.90;77.80;;;;;;4981683;28;20234;-68
2022/01/07 03:23:37;;;;;;;20.05;10.90;;;3.90;78.00;;;;;;4982205;28;20231;-70
2022/01/07 03:26:05;;;;;;;22.67;10.98;;;3.90;78.00;;;;;;4986286;28;20247;-70
2022/01/07 03:28:33;;;;;;;30.67;10.15;;;4.00;78.00;;;;;;5000490;28;20374;-69
2022/01/07 03:31:03;;;;;;;21.20;10.60;;;4.00;78.10;;;;;;4980583;28;20297;-69
2022/01/07 03:33:31;;;;;;;16.90;9.73;;;4.00;78.10;;;;;;4983135;28;20237;-69
2022/01/07 03:35:59;;;;;;;19.10;9.60;;;4.10;78.10;;;;;;4982186;28;20203;-69
2022/01/07 03:38:27;;;;;;;19.65;10.30;;;4.10;78.10;;;;;;4978896;28;20210;-69
2022/01/07 03:40:55;;;;;;;17.48;10.93;;;4.10;78.00;;;;;;4978473;28;20226;-69
2022/01/07 03:43:23;;;;;;;21.10;11.13;;;4.20;77.90;;;;;;4980245;28;20631;-69
2022/01/07 03:45:52;;;;;;;19.63;10.63;;;4.10;77.80;;;;;;4979202;28;20918;-69
2022/01/07 03:48:21;;;;;;;18.88;10.63;;;4.10;77.90;;;;;;4980394;28;20203;-70
2022/01/07 03:50:49;;;;;;;20.00;10.27;;;4.10;77.90;;;;;;4981125;28;20225;-69
2022/01/07 03:53:17;;;;;;;20.33;10.48;;;4.10;77.80;;;;;;4979231;28;20199;-69
2022/01/07 03:55:45;;;;;;;23.13;9.52;;;4.10;77.80;;;;;;4975840;28;20202;-69
2022/01/07 03:58:14;;;;;;;18.55;10.77;;;4.10;77.70;;;;;;4980123;28;20664;-69
2022/01/07 04:00:42;;;;;;;18.75;9.95;;;4.00;77.90;;;;;;4977589;28;20234;-68
2022/01/07 04:03:13;;;;;;;19.80;10.40;;;4.00;78.00;;;;;;4977561;28;20676;-69
2022/01/07 04:05:43;;;;;;;19.33;9.75;;;4.10;78.00;;;;;;4980926;28;20214;-68
2022/01/07 04:08:11;;;;;;;19.08;10.90;;;4.10;78.00;;;;;;4980678;28;20257;-69
2022/01/07 04:10:39;;;;;;;19.05;10.20;;;4.10;78.00;;;;;;4980611;28;20885;-70
2022/01/07 04:13:07;;;;;;;20.20;10.20;;;4.10;78.10;;;;;;4977290;28;20205;-70
2022/01/07 04:15:35;;;;;;;22.40;11.50;;;4.10;78.00;;;;;;4978982;28;20260;-69
2022/01/07 04:18:04;;;;;;;19.80;10.73;;;4.10;78.00;;;;;;4979156;28;20647;-72
2022/01/07 04:20:34;;;;;;;24.55;11.55;;;4.10;78.00;;;;;;4977692;28;20272;-68
2022/01/07 04:23:04;;;;;;;19.55;9.77;;;4.10;78.10;;;;;;4977791;28;20265;-68
2022/01/07 04:25:32;;;;;;;20.23;10.93;;;4.10;78.20;;;;;;4979177;28;20703;-68
2022/01/07 04:28:02;;;;;;;27.55;11.10;;;4.20;78.20;;;;;;4978796;28;20198;-69
2022/01/07 04:30:32;;;;;;;18.92;10.88;;;4.20;78.10;;;;;;4979354;28;20312;-70
2022/01/07 04:33:01;;;;;;;21.27;10.00;;;4.20;78.10;;;;;;4992949;28;20219;-68
2022/01/07 04:35:31;;;;;;;27.02;10.45;;;4.20;78.10;;;;;;4977175;28;20861;-70
2022/01/07 04:37:59;;;;;;;22.77;10.40;;;4.20;78.00;;;;;;4977018;28;20196;-69
2022/01/07 04:40:28;;;;;;;23.38;10.02;;;4.20;78.00;;;;;;4980397;28;20241;-69
2022/01/07 04:42:57;;;;;;;16.88;10.05;;;4.20;78.10;;;;;;4996552;28;20694;-69
2022/01/07 04:45:25;;;;;;;21.05;10.80;;;4.20;78.10;;;;;;4983987;28;20218;-68
2022/01/07 04:47:54;;;;;;;22.95;10.10;;;4.20;78.20;;;;;;4984789;28;20206;-70
2022/01/07 04:50:23;;;;;;;19.05;9.23;;;4.20;78.20;;;;;;4984377;28;20230;-70
2022/01/07 04:52:51;;;;;;;19.08;9.40;;;4.20;78.20;;;;;;4984112;28;20198;-69
2022/01/07 04:55:21;;;;;;;18.05;9.65;;;4.20;78.40;;;;;;4983925;28;20198;-70
2022/01/07 04:57:51;;;;;;;19.10;9.75;;;4.20;78.40;;;;;;4981284;28;20199;-69
2022/01/07 05:00:22;;;;;;;14.73;9.02;;;4.30;78.40;;;;;;4977327;28;20268;-69
2022/01/07 05:02:51;;;;;;;19.90;11.10;;;4.30;78.10;;;;;;4979683;28;20289;-68
2022/01/07 05:05:19;;;;;;;16.48;9.63;;;4.20;78.00;;;;;;4980252;28;20796;-69
2022/01/07 05:07:47;;;;;;;22.00;9.82;;;4.20;78.00;;;;;;4983082;28;20614;-70
2022/01/07 05:10:16;;;;;;;23.85;10.90;;;4.10;78.20;;;;;;4998245;28;20728;-69
2022/01/07 05:12:44;;;;;;;20.02;10.98;;;4.10;78.20;;;;;;4976778;28;20214;-69
2022/01/07 05:15:15;;;;;;;21.00;10.40;;;4.10;78.20;;;;;;4983799;28;20194;-69
2022/01/07 05:17:43;;;;;;;28.98;11.25;;;4.10;78.20;;;;;;4981383;28;20257;-69
2022/01/07 05:20:13;;;;;;;25.17;11.43;;;4.10;78.30;;;;;;4981354;28;20240;-68
2022/01/07 05:22:41;;;;;;;22.63;12.35;;;4.10;78.30;;;;;;4980566;28;20292;-69
2022/01/07 05:25:12;;;;;;;19.98;10.65;;;4.00;78.40;;;;;;4976526;28;20222;-69
2022/01/07 05:27:40;;;;;;;25.35;10.50;;;4.00;78.50;;;;;;4980366;28;20213;-69
2022/01/07 05:30:10;;;;;;;19.48;10.90;;;4.10;78.60;;;;;;4979847;28;20289;-69
2022/01/07 05:32:39;;;;;;;23.17;11.80;;;4.10;78.60;;;;;;4979224;28;20211;-69
2022/01/07 05:35:10;;;;;;;22.40;11.30;;;4.10;78.60;;;;;;4981565;28;20209;-68
2022/01/07 05:37:38;;;;;;;16.80;9.82;;;4.10;78.50;;;;;;4982460;28;20210;-68
2022/01/07 05:40:07;;;;;;;18.88;11.38;;;4.10;78.40;;;;;;4987411;28;20242;-68
2022/01/07 05:42:35;;;;;;;23.65;11.35;;;4.10;78.40;;;;;;4981416;28;20695;-68
2022/01/07 05:45:03;;;;;;;20.67;10.20;;;4.10;78.40;;;;;;4979300;28;20217;-68
2022/01/07 05:47:32;;;;;;;23.02;11.48;;;4.00;78.30;;;;;;4981923;28;20222;-69
2022/01/07 05:50:01;;;;;;;19.10;10.63;;;4.00;78.40;;;;;;4978410;28;20724;-70
2022/01/07 05:52:29;;;;;;;15.60;9.68;;;4.00;78.50;;;;;;4976919;28;20207;-68
2022/01/07 05:54:57;;;;;;;22.17;9.18;;;4.00;78.60;;;;;;4981069;28;20653;-69
2022/01/07 05:57:27;;;;;;;16.67;10.88;;;4.00;78.50;;;;;;4981059;28;20214;-68
2022/01/07 05:59:55;;;;;;;22.48;10.20;;;4.00;78.60;;;;;;4982079;28;20265;-69
2022/01/07 06:02:23;;;;;;;22.55;11.18;;;4.00;78.50;;;;;;4983276;28;20345;-69
2022/01/07 06:04:52;;;;;;;23.20;10.00;;;4.00;78.50;;;;;;4979401;28;20294;-69
2022/01/07 06:07:21;;;;;;;21.23;9.60;;;4.00;78.40;;;;;;4975974;28;20211;-69
2022/01/07 06:09:49;;;;;;;16.02;9.05;;;4.00;78.50;;;;;;4984275;28;20649;-70
2022/01/07 06:12:17;;;;;;;19.13;10.48;;;4.00;78.70;;;;;;4980203;28;20198;-69
2022/01/07 06:14:45;;;;;;;17.00;9.55;;;4.00;78.60;;;;;;4982136;28;20663;-69
2022/01/07 06:17:13;;;;;;;19.08;9.50;;;4.00;78.50;;;;;;4982708;28;20238;-69
2022/01/07 06:19:41;;;;;;;21.35;10.00;;;4.00;78.50;;;;;;4981350;28;20234;-69
2022/01/07 06:22:10;;;;;;;18.83;9.80;;;4.00;78.50;;;;;;4982972;28;20877;-70
2022/01/07 06:24:40;;;;;;;19.73;10.23;;;4.00;78.40;;;;;;4996418;28;20226;-72
2022/01/07 06:27:08;;;;;;;16.95;10.27;;;4.00;78.30;;;;;;4981835;28;20214;-70
2022/01/07 06:29:37;;;;;;;14.95;10.70;;;4.00;78.50;;;;;;4983894;28;20284;-70
2022/01/07 06:32:06;;;;;;;21.20;10.30;;;4.00;78.30;;;;;;4993665;28;20585;-71
2022/01/07 06:34:35;;;;;;;31.52;12.02;;;3.90;78.30;;;;;;4980197;28;20257;-68
2022/01/07 06:37:04;;;;;;;25.08;11.77;;;3.90;78.40;;;;;;4975982;28;20214;-69
2022/01/07 06:39:32;;;;;;;20.77;10.55;;;3.90;78.50;;;;;;4976008;28;20202;-67
2022/01/07 06:42:02;;;;;;;25.17;11.73;;;3.90;78.40;;;;;;4975658;28;20213;-69
2022/01/07 06:44:30;;;;;;;19.85;10.98;;;3.90;78.30;;;;;;4978692;28;20648;-69
2022/01/07 06:46:58;;;;;;;18.48;11.00;;;3.80;78.40;;;;;;4977876;28;20743;-68
2022/01/07 06:49:26;;;;;;;21.67;11.30;;;3.80;78.50;;;;;;4982141;28;20254;-68
2022/01/07 06:51:54;;;;;;;18.63;10.85;;;3.90;78.50;;;;;;4980733;28;20671;-69
2022/01/07 06:54:22;;;;;;;20.85;12.23;;;3.90;78.50;;;;;;4979479;28;20622;-71
2022/01/07 06:56:50;;;;;;;21.17;11.38;;;3.90;78.50;;;;;;4979010;28;20215;-71
2022/01/07 06:59:19;;;;;;;23.27;12.45;;;3.90;78.40;;;;;;4977459;28;20206;-71
2022/01/07 07:01:48;;;;;;;18.75;11.10;;;3.90;78.50;;;;;;4976329;28;20261;-69
2022/01/07 07:04:17;;;;;;;22.73;11.48;;;3.90;78.60;;;;;;4975416;28;20258;-69
2022/01/07 07:06:45;;;;;;;27.88;12.00;;;3.90;78.50;;;;;;4976378;28;20229;-68
2022/01/07 07:09:13;;;;;;;23.42;13.05;;;3.80;78.30;;;;;;4976071;28;20206;-69
2022/01/07 07:11:43;;;;;;;21.08;12.55;;;3.80;78.40;;;;;;4983421;28;20226;-69
2022/01/07 07:14:11;;;;;;;20.15;12.75;;;3.80;78.50;;;;;;4977269;28;20203;-69
2022/01/07 07:16:41;;;;;;;20.88;12.80;;;3.70;78.50;;;;;;4979366;28;20250;-69
2022/01/07 07:19:09;;;;;;;25.20;12.10;;;3.70;78.60;;;;;;4979829;28;20566;-69
2022/01/07 07:21:37;;;;;;;17.88;11.35;;;3.70;78.60;;;;;;4974967;28;20222;-71
2022/01/07 07:24:06;;;;;;;19.15;12.88;;;3.70;78.70;;;;;;4980733;28;20207;-69
2022/01/07 07:26:34;;;;;;;17.40;11.00;;;3.70;78.80;;;;;;4984018;28;20326;-72
2022/01/07 07:29:02;;;;;;;17.67;10.90;;;3.70;78.80;;;;;;4981701;28;20203;-72
2022/01/07 07:31:31;;;;;;;21.08;11.50;;;3.70;79.10;;;;;;4977923;28;20257;-69
2022/01/07 07:34:31;;;;;;;24.48;11.63;;;3.70;78.90;;;;;;4978961;28;20758;-69
2022/01/07 07:36:59;;;;;;;17.48;10.80;;;3.70;78.90;;;;;;4977228;28;20246;-69
2022/01/07 07:39:27;;;;;;;17.52;10.75;;;3.70;78.90;;;;;;4980874;28;20198;-71
2022/01/07 07:41:55;;;;;;;17.77;11.73;;;3.80;79.00;;;;;;4979811;28;20210;-70
2022/01/07 07:44:29;;;;;;;20.95;11.57;;;3.80;79.00;;;;;;4992245;28;20208;-71
2022/01/07 07:46:58;;;;;;;19.88;11.70;;;3.80;78.90;;;;;;4976000;28;20728;-72
2022/01/07 07:49:28;;;;;;;20.63;12.43;;;3.90;78.90;;;;;;4976549;28;20210;-70
2022/01/07 07:51:56;;;;;;;21.45;11.45;;;3.90;78.80;;;;;;4978746;28;20201;-70
2022/01/07 07:54:25;;;;;;;18.15;10.52;;;3.90;78.80;;;;;;4977655;28;20206;-70
2022/01/07 07:56:53;;;;;;;19.10;11.43;;;3.90;78.90;;;;;;4975400;28;20329;-69
2022/01/07 07:59:22;;;;;;;19.20;10.52;;;3.90;78.90;;;;;;4980957;28;20289;-69
2022/01/07 08:01:50;;;;;;;17.10;9.60;;;3.90;78.70;;;;;;4990703;28;20285;-70
2022/01/07 08:04:20;;;;;;;21.38;10.40;;;3.90;78.60;;;;;;4981366;28;20286;-70
2022/01/07 08:06:49;;;;;;;25.85;10.60;;;3.90;78.70;;;;;;4980457;28;20221;-69
2022/01/07 08:09:18;;;;;;;19.15;9.75;;;3.90;78.80;;;;;;4979301;28;20697;-69
2022/01/07 08:11:51;;;;;;;19.35;9.02;;;3.90;78.80;;;;;;4977683;28;20222;-69
2022/01/07 08:17:07;;;;;;;15.73;9.18;;;3.90;78.60;;;;;;4982346;28;20810;-69
2022/01/07 08:19:35;;;;;;;15.43;9.48;;;3.90;78.70;;;;;;4996375;28;20214;-71
2022/01/07 08:22:06;;;;;;;19.65;9.52;;;4.00;78.70;;;;;;4982523;28;20237;-70
2022/01/07 08:24:34;;;;;;;16.13;9.82;;;4.00;78.70;;;;;;4980706;28;20739;-69
2022/01/07 08:27:02;;;;;;;12.30;8.65;;;4.00;78.70;;;;;;4983878;28;20218;-70
2022/01/07 08:29:51;;;;;;;41.45;20.05;;;4.00;78.50;;;;;;4978936;28;20292;-69
2022/01/07 08:35:06;;;;;;;31.70;14.43;;;4.00;78.40;;;;;;4994862;28;20766;-72
2022/01/07 08:37:36;;;;;;;21.10;10.10;;;3.90;78.10;;;;;;4983965;28;20194;-70
2022/01/07 08:40:04;;;;;;;17.35;9.18;;;3.80;78.30;;;;;;4979967;28;20288;-71
2022/01/07 08:42:33;;;;;;;30.10;16.27;;;3.80;78.30;;;;;;4981076;28;20698;-71
2022/01/07 08:45:01;;;;;;;31.15;15.18;;;3.80;78.30;;;;;;4982740;28;20205;-70
2022/01/07 08:47:29;;;;;;;30.95;22.67;;;3.80;78.40;;;;;;4981477;28;20238;-70
2022/01/07 08:49:57;;;;;;;20.33;14.05;;;3.80;78.50;;;;;;4986707;28;20809;-71
2022/01/07 08:52:25;;;;;;;16.30;8.77;;;3.80;78.50;;;;;;4981563;28;20202;-71
2022/01/07 08:54:54;;;;;;;18.08;9.43;;;3.90;78.50;;;;;;4982894;28;20239;-70
2022/01/07 08:57:22;;;;;;;11.20;7.78;;;3.90;78.50;;;;;;4981941;28;20215;-70
2022/01/07 08:59:51;;;;;;;14.48;7.85;;;4.00;78.50;;;;;;4981535;28;20230;-71
2022/01/07 09:02:19;;;;;;;21.50;8.75;;;4.00;78.30;;;;;;4981958;28;20603;-69
2022/01/07 09:04:47;;;;;;;13.07;8.52;;;3.90;78.20;;;;;;4985378;28;20214;-70
2022/01/07 09:07:15;;;;;;;15.15;8.55;;;3.90;78.30;;;;;;4981196;28;20210;-70
2022/01/07 09:09:43;;;;;;;15.20;8.55;;;3.90;78.30;;;;;;4980776;28;20601;-70
2022/01/07 09:12:14;;;;;;;14.60;8.77;;;4.00;78.30;;;;;;4980850;28;20274;-70
2022/01/07 09:14:42;;;;;;;14.68;9.30;;;4.00;78.20;;;;;;4993488;28;20288;-69
2022/01/07 09:17:10;;;;;;;11.95;7.93;;;4.00;78.20;;;;;;4978810;28;20231;-71
2022/01/07 09:19:38;;;;;;;14.50;8.40;;;4.00;78.30;;;;;;4997838;28;20242;-71
2022/01/07 09:22:06;;;;;;;15.07;9.15;;;4.00;78.10;;;;;;4997089;28;20211;-73
2022/01/07 09:24:34;;;;;;;15.43;8.75;;;4.00;78.20;;;;;;4982740;28;20206;-71
2022/01/07 09:27:02;;;;;;;15.93;7.80;;;3.90;78.00;;;;;;4981820;28;20270;-71
2022/01/07 09:29:32;;;;;;;13.15;8.27;;;3.90;77.90;;;;;;4982617;28;20253;-71
2022/01/07 09:32:00;;;;;;;15.20;8.07;;;3.90;78.10;;;;;;4978509;28;20240;-71
2022/01/07 09:34:28;;;;;;;13.30;7.68;;;3.90;78.30;;;;;;4986465;28;20211;-71
2022/01/07 09:37:02;;;;;;;15.85;7.82;;;3.90;78.20;;;;;;4977846;28;20306;-71
2022/01/07 09:39:31;;;;;;;16.90;8.43;;;3.90;78.20;;;;;;4978610;28;20211;-70
2022/01/07 09:42:00;;;;;;;15.85;7.30;;;4.00;78.30;;;;;;4978907;28;20266;-70
2022/01/07 09:44:28;;;;;;;12.70;8.07;;;4.00;78.40;;;;;;4982021;28;20209;-71
2022/01/07 09:46:59;;;;;;;12.65;7.72;;;4.10;78.30;;;;;;4979093;28;20222;-70
2022/01/07 09:49:33;;;;;;;13.60;7.60;;;4.10;78.10;;;;;;4980143;28;21197;-71
2022/01/07 09:52:01;;;;;;;13.85;8.70;;;4.00;78.10;;;;;;4994498;28;20229;-70
2022/01/07 09:54:29;;;;;;;11.73;7.32;;;4.00;78.10;;;;;;4980560;28;20704;-73
2022/01/07 09:56:57;;;;;;;12.63;7.50;;;4.00;78.10;;;;;;4986569;28;20226;-71
2022/01/07 09:59:25;;;;;;;16.33;9.52;;;4.00;78.00;;;;;;4976501;28;20186;-73
2022/01/07 10:01:55;;;;;;;18.27;9.70;;;4.00;78.00;;;;;;4981189;28;20247;-72
2022/01/07 10:04:29;;;;;;;16.60;11.13;;;4.00;78.00;;;;;;4983561;28;20265;-71
2022/01/07 10:07:12;;;;;;;15.85;9.90;;;4.00;78.10;;;;;;4984670;28;20246;-72
2022/01/07 10:09:40;;;;;;;13.70;9.32;;;4.00;78.10;;;;;;4980827;28;20270;-72
2022/01/07 10:12:09;;;;;;;14.25;9.00;;;4.00;78.10;;;;;;4978675;28;20205;-71
2022/01/07 10:14:37;;;;;;;15.45;8.43;;;4.00;78.10;;;;;;4980538;28;20278;-72
2022/01/07 10:17:06;;;;;;;15.50;8.63;;;4.00;78.20;;;;;;4990473;28;20231;-72
2022/01/07 10:19:38;;;;;;;17.88;11.02;;;4.00;78.30;;;;;;4982354;28;20207;-71
2022/01/07 10:22:09;;;;;;;17.33;10.05;;;4.10;78.40;;;;;;4981132;28;20248;-71
2022/01/07 10:24:53;;;;;;;16.33;9.68;;;4.10;78.40;;;;;;4985990;28;20758;-70
2022/01/07 10:27:23;;;;;;;15.25;7.90;;;4.10;78.40;;;;;;4983060;28;20206;-70
2022/01/07 10:29:51;;;;;;;13.35;7.70;;;4.10;78.30;;;;;;4975880;28;20227;-72
2022/01/07 10:32:24;;;;;;;15.00;8.43;;;4.10;78.20;;;;;;4977230;28;20273;-72
2022/01/07 10:35:12;;;;;;;13.30;7.63;;;4.10;78.20;;;;;;4983747;28;20260;-72
2022/01/07 10:37:50;;;;;;;14.57;8.40;;;4.00;78.30;;;;;;4978399;28;20237;-71
2022/01/07 10:40:28;;;;;;;11.60;7.90;;;4.00;78.30;;;;;;4980008;28;20222;-71
2022/01/07 10:43:07;;;;;;;14.20;8.35;;;4.00;78.40;;;;;;4976641;28;20264;-70
2022/01/07 10:45:35;;;;;;;12.60;8.20;;;4.00;78.60;;;;;;4980411;28;20610;-71
2022/01/07 10:48:04;;;;;;;14.88;8.52;;;4.00;78.60;;;;;;4976384;28;20242;-73
2022/01/07 10:50:37;;;;;;;18.70;8.23;;;4.00;78.70;;;;;;4992445;28;20901;-70
2022/01/07 10:53:23;;;;;;;14.52;8.15;;;4.00;78.80;;;;;;4979863;28;20206;-72
2022/01/07 10:56:07;;;;;;;17.05;9.38;;;4.10;78.80;;;;;;4976558;28;20222;-71
2022/01/07 10:59:07;;;;;;;17.38;8.27;;;4.00;78.70;;;;;;4979500;28;20923;-73
2022/01/07 11:01:40;;;;;;;13.25;9.00;;;4.00;78.70;;;;;;4906333;28;20288;-70
2022/01/07 11:04:14;;;;;;;12.90;7.80;;;4.00;78.80;;;;;;4952385;28;20241;-72
2022/01/07 11:06:44;;;;;;;16.98;9.57;;;3.90;78.70;;;;;;4958165;28;20291;-71
2022/01/07 11:09:14;;;;;;;15.10;8.30;;;3.90;78.80;;;;;;4959722;28;20692;-72
2022/01/07 11:11:50;;;;;;;13.90;8.52;;;3.90;78.80;;;;;;4957792;28;20328;-72
2022/01/07 11:14:21;;;;;;;12.55;8.25;;;3.90;78.90;;;;;;4962004;28;20207;-71
2022/01/07 11:16:50;;;;;;;14.38;8.32;;;3.90;79.40;;;;;;4973784;28;20257;-72
2022/01/07 11:19:20;;;;;;;14.90;7.60;;;3.80;79.20;;;;;;4982597;28;20274;-72
2022/01/07 11:21:52;;;;;;;12.88;8.60;;;3.80;79.20;;;;;;4976301;28;20199;-71
2022/01/07 11:24:34;;;;;;;11.52;7.63;;;3.80;79.40;;;;;;4978845;28;20202;-73
2022/01/07 11:27:03;;;;;;;12.35;7.97;;;3.80;79.40;;;;;;4993777;28;20210;-73
2022/01/07 11:29:31;;;;;;;15.27;7.70;;;3.80;79.60;;;;;;4976565;28;20214;-72
2022/01/07 11:32:34;;;;;;;13.50;8.18;;;3.80;79.50;;;;;;4982344;28;20284;-72
2022/01/07 11:35:48;;;;;;;10.90;7.32;;;3.80;79.70;;;;;;4979381;28;20198;-73
2022/01/07 11:38:35;;;;;;;13.23;7.57;;;3.90;79.70;;;;;;4977581;28;20278;-70
2022/01/07 11:41:05;;;;;;;10.93;7.10;;;3.90;79.80;;;;;;4974392;28;20230;-70
2022/01/07 11:43:39;;;;;;;10.07;6.90;;;4.00;79.70;;;;;;4981051;28;20202;-73
2022/01/07 11:46:31;;;;;;;9.98;6.82;;;4.00;79.60;;;;;;4974901;28;20226;-71
2022/01/07 11:49:03;;;;;;;9.13;6.53;;;4.00;79.70;;;;;;4975356;28;20215;-70
2022/01/07 11:51:42;;;;;;;11.20;7.00;;;4.00;79.70;;;;;;4974644;28;20222;-70
2022/01/07 11:54:13;;;;;;;10.73;6.97;;;4.00;79.70;;;;;;4978414;28;20202;-71
2022/01/07 11:56:42;;;;;;;12.90;7.18;;;4.00;79.80;;;;;;4978312;28;20305;-72
2022/01/07 11:59:25;;;;;;;11.77;6.57;;;4.00;79.90;;;;;;4977061;28;20202;-73
2022/01/07 12:02:05;;;;;;;11.18;7.35;;;4.10;79.80;;;;;;4975053;28;20250;-71
2022/01/07 12:04:35;;;;;;;10.07;6.30;;;4.00;79.90;;;;;;4976351;28;20305;-71
2022/01/07 12:07:08;;;;;;;13.02;6.47;;;4.10;79.80;;;;;;4979851;28;20260;-71
2022/01/07 12:09:39;;;;;;;12.18;7.00;;;4.00;79.80;;;;;;4978683;28;20220;-73
2022/01/07 12:12:11;;;;;;;11.52;7.18;;;4.00;79.80;;;;;;4992502;28;20213;-72
2022/01/07 12:14:43;;;;;;;12.55;7.15;;;4.00;79.80;;;;;;4980043;28;20249;-72
2022/01/07 12:17:14;;;;;;;9.25;6.47;;;4.00;79.80;;;;;;4975660;28;20221;-72
2022/01/07 12:20:18;;;;;;;9.50;5.80;;;4.00;79.90;;;;;;4977085;28;20226;-72
2022/01/07 12:22:49;;;;;;;9.13;6.18;;;4.00;79.90;;;;;;4979712;28;20237;-72
2022/01/07 12:25:18;;;;;;;10.73;6.97;;;4.00;80.00;;;;;;4990515;28;20261;-71
2022/01/07 12:27:47;;;;;;;10.25;6.50;;;3.90;80.20;;;;;;4991297;28;20206;-71
2022/01/07 12:30:15;;;;;;;10.75;6.82;;;4.00;80.10;;;;;;4975892;28;20757;-71
2022/01/07 12:32:44;;;;;;;9.35;6.70;;;4.00;80.10;;;;;;4979334;28;20226;-71
2022/01/07 12:35:14;;;;;;;11.15;7.07;;;4.00;80.30;;;;;;4978555;28;20752;-73
2022/01/07 12:37:42;;;;;;;8.85;6.50;;;3.90;80.30;;;;;;4981485;28;20932;-71
2022/01/07 12:40:11;;;;;;;8.88;6.20;;;4.00;80.40;;;;;;4976002;28;20219;-70
2022/01/07 12:42:44;;;;;;;10.30;7.18;;;4.00;80.50;;;;;;4977793;28;20203;-70
2022/01/07 12:45:15;;;;;;;9.98;6.57;;;4.00;80.40;;;;;;4977066;28;20668;-71
2022/01/07 12:47:43;;;;;;;11.95;7.15;;;4.00;80.30;;;;;;4978148;28;20703;-72
2022/01/07 12:50:12;;;;;;;10.00;7.10;;;4.00;80.30;;;;;;5019408;22;20229;-75
2022/01/07 12:52:42;;;;;;;10.57;7.50;;;4.10;80.50;;;;;;4998101;28;20676;-75
2022/01/07 12:55:14;;;;;;;10.20;6.50;;;4.20;80.60;;;;;;5013335;28;20259;-75
2022/01/07 12:57:46;;;;;;;11.13;7.13;;;4.20;80.40;;;;;;5016454;28;20216;-79
2022/01/07 13:00:19;;;;;;;10.27;7.07;;;4.20;80.10;;;;;;4998726;28;20200;-75
2022/01/07 13:02:49;;;;;;;10.30;6.82;;;4.20;80.20;;;;;;5013490;28;20401;-75